sensor_id;sensor_type;location;lat;lon;timestamp;temperature;humidity
15900;DHT22;8048;50.644;6.184;2024-01-16T00:00:34;-0.50;99.90
15900;DHT22;8048;50.644;6.184;2024-01-16T00:02:59;-0.50;99.90
15900;DHT22;8048;50.644;6.184;2024-01-16T00:05:25;-0.50;99.90
15900;DHT22;8048;50.644;6.184;2024-01-16T00:07:51;-0.50;99.90
15900;DHT22;8048;50.644;6.184;2024-01-16T00:10:16;-0.60;99.90
15900;DHT22;8048;50.644;6.184;2024-01-16T00:12:42;-0.60;99.90
15900;DHT22;8048;50.644;6.184;2024-01-16T00:15:08;-0.60;99.90
15900;DHT22;8048;50.644;6.184;2024-01-16T00:17:34;-0.60;99.90
15900;DHT22;8048;50.644;6.184;2024-01-16T00:20:00;-0.60;99.90
15900;DHT22;8048;50.644;6.184;2024-01-16T00:22:29;-0.60;99.90
15900;DHT22;8048;50.644;6.184;2024-01-16T00:24:55;-0.70;99.90
15900;DHT22;8048;50.644;6.184;2024-01-16T00:27:20;-0.60;99.90
15900;DHT22;8048;50.644;6.184;2024-01-16T00:29:46;-0.70;99.90
15900;DHT22;8048;50.644;6.184;2024-01-16T00:32:11;-0.70;99.90
15900;DHT22;8048;50.644;6.184;2024-01-16T00:34:41;-0.70;99.90
15900;DHT22;8048;50.644;6.184;2024-01-16T00:37:07;-0.70;99.90
15900;DHT22;8048;50.644;6.184;2024-01-16T00:39:33;-0.70;99.90
15900;DHT22;8048;50.644;6.184;2024-01-16T00:41:58;-0.70;99.90
15900;DHT22;8048;50.644;6.184;2024-01-16T00:44:24;-0.70;99.90
15900;DHT22;8048;50.644;6.184;2024-01-16T00:46:50;-0.70;99.90
15900;DHT22;8048;50.644;6.184;2024-01-16T00:49:15;-0.60;99.90
15900;DHT22;8048;50.644;6.184;2024-01-16T00:51:41;-0.60;99.90
15900;DHT22;8048;50.644;6.184;2024-01-16T00:54:06;-0.70;99.90
15900;DHT22;8048;50.644;6.184;2024-01-16T00:56:33;-0.70;99.90
15900;DHT22;8048;50.644;6.184;2024-01-16T00:58:59;-0.70;99.90
15900;DHT22;8048;50.644;6.184;2024-01-16T01:01:25;-0.70;99.90
15900;DHT22;8048;50.644;6.184;2024-01-16T01:03:51;-0.70;99.90
15900;DHT22;8048;50.644;6.184;2024-01-16T01:06:17;-0.70;99.90
15900;DHT22;8048;50.644;6.184;2024-01-16T01:08:42;-0.70;99.90
15900;DHT22;8048;50.644;6.184;2024-01-16T01:11:08;-0.70;99.90
15900;DHT22;8048;50.644;6.184;2024-01-16T01:13:33;-0.70;99.90
15900;DHT22;8048;50.644;6.184;2024-01-16T01:15:59;-0.70;99.90
15900;DHT22;8048;50.644;6.184;2024-01-16T01:18:25;-0.70;99.90
15900;DHT22;8048;50.644;6.184;2024-01-16T01:20:51;-0.80;99.90
15900;DHT22;8048;50.644;6.184;2024-01-16T01:23:16;-0.80;99.90
15900;DHT22;8048;50.644;6.184;2024-01-16T01:25:42;-0.80;99.90
15900;DHT22;8048;50.644;6.184;2024-01-16T01:28:08;-0.80;99.90
15900;DHT22;8048;50.644;6.184;2024-01-16T01:30:34;-0.90;99.90
15900;DHT22;8048;50.644;6.184;2024-01-16T01:32:59;-0.80;99.90
15900;DHT22;8048;50.644;6.184;2024-01-16T01:35:25;-0.80;99.90
15900;DHT22;8048;50.644;6.184;2024-01-16T01:37:50;-0.80;99.90
15900;DHT22;8048;50.644;6.184;2024-01-16T01:40:16;-0.80;99.90
15900;DHT22;8048;50.644;6.184;2024-01-16T01:42:42;-0.80;99.90
15900;DHT22;8048;50.644;6.184;2024-01-16T01:45:11;-0.80;99.90
15900;DHT22;8048;50.644;6.184;2024-01-16T01:47:40;-0.90;99.90
15900;DHT22;8048;50.644;6.184;2024-01-16T01:50:09;-0.80;99.90
15900;DHT22;8048;50.644;6.184;2024-01-16T01:52:35;-0.90;99.90
15900;DHT22;8048;50.644;6.184;2024-01-16T01:55:02;-0.90;99.90
15900;DHT22;8048;50.644;6.184;2024-01-16T01:57:28;-0.90;99.90
15900;DHT22;8048;50.644;6.184;2024-01-16T01:59:55;-0.90;99.90
15900;DHT22;8048;50.644;6.184;2024-01-16T02:02:21;-0.80;99.90
15900;DHT22;8048;50.644;6.184;2024-01-16T02:04:47;-0.80;99.90
15900;DHT22;8048;50.644;6.184;2024-01-16T02:07:13;-0.90;99.90
15900;DHT22;8048;50.644;6.184;2024-01-16T02:09:40;-0.90;99.90
15900;DHT22;8048;50.644;6.184;2024-01-16T02:12:06;-0.90;99.90
15900;DHT22;8048;50.644;6.184;2024-01-16T02:14:32;-0.90;99.90
15900;DHT22;8048;50.644;6.184;2024-01-16T02:16:58;-0.90;99.90
15900;DHT22;8048;50.644;6.184;2024-01-16T02:19:23;-0.90;99.90
15900;DHT22;8048;50.644;6.184;2024-01-16T02:21:51;-0.90;99.90
15900;DHT22;8048;50.644;6.184;2024-01-16T02:24:19;-0.90;99.90
15900;DHT22;8048;50.644;6.184;2024-01-16T02:26:44;-0.90;99.90
15900;DHT22;8048;50.644;6.184;2024-01-16T02:29:10;-0.90;99.90
15900;DHT22;8048;50.644;6.184;2024-01-16T02:31:36;-0.80;99.90
15900;DHT22;8048;50.644;6.184;2024-01-16T02:34:01;-0.90;99.90
15900;DHT22;8048;50.644;6.184;2024-01-16T02:36:29;-0.90;99.90
15900;DHT22;8048;50.644;6.184;2024-01-16T02:38:55;-0.90;99.90
15900;DHT22;8048;50.644;6.184;2024-01-16T02:41:20;-0.90;99.90
15900;DHT22;8048;50.644;6.184;2024-01-16T02:43:46;-1.00;99.90
15900;DHT22;8048;50.644;6.184;2024-01-16T02:46:13;-0.90;99.90
15900;DHT22;8048;50.644;6.184;2024-01-16T02:48:39;-0.90;99.90
15900;DHT22;8048;50.644;6.184;2024-01-16T02:51:05;-0.90;99.90
15900;DHT22;8048;50.644;6.184;2024-01-16T02:53:31;-0.90;99.90
15900;DHT22;8048;50.644;6.184;2024-01-16T02:55:57;-0.90;99.90
15900;DHT22;8048;50.644;6.184;2024-01-16T02:58:24;-0.90;99.90
15900;DHT22;8048;50.644;6.184;2024-01-16T03:00:50;-0.80;99.90
15900;DHT22;8048;50.644;6.184;2024-01-16T03:03:16;-0.90;99.90
15900;DHT22;8048;50.644;6.184;2024-01-16T03:05:42;-0.90;99.90
15900;DHT22;8048;50.644;6.184;2024-01-16T03:08:08;-0.90;99.90
15900;DHT22;8048;50.644;6.184;2024-01-16T03:10:33;-1.00;99.90
15900;DHT22;8048;50.644;6.184;2024-01-16T03:12:59;-1.00;99.90
15900;DHT22;8048;50.644;6.184;2024-01-16T03:15:24;-1.00;99.90
15900;DHT22;8048;50.644;6.184;2024-01-16T03:17:50;-1.10;99.90
15900;DHT22;8048;50.644;6.184;2024-01-16T03:20:17;-1.00;99.90
15900;DHT22;8048;50.644;6.184;2024-01-16T03:22:44;-1.00;99.90
15900;DHT22;8048;50.644;6.184;2024-01-16T03:25:09;-1.00;99.90
15900;DHT22;8048;50.644;6.184;2024-01-16T03:27:36;-1.00;99.90
15900;DHT22;8048;50.644;6.184;2024-01-16T03:30:02;-1.10;99.90
15900;DHT22;8048;50.644;6.184;2024-01-16T03:32:28;-1.10;99.90
15900;DHT22;8048;50.644;6.184;2024-01-16T03:34:53;-1.10;99.90
15900;DHT22;8048;50.644;6.184;2024-01-16T03:37:19;-1.10;99.90
15900;DHT22;8048;50.644;6.184;2024-01-16T03:39:45;-1.00;99.90
15900;DHT22;8048;50.644;6.184;2024-01-16T03:42:10;-1.10;99.90
15900;DHT22;8048;50.644;6.184;2024-01-16T03:44:39;-1.10;99.90
15900;DHT22;8048;50.644;6.184;2024-01-16T03:47:05;-1.10;99.90
15900;DHT22;8048;50.644;6.184;2024-01-16T03:49:31;-1.10;99.90
15900;DHT22;8048;50.644;6.184;2024-01-16T03:51:56;-0.80;99.90
15900;DHT22;8048;50.644;6.184;2024-01-16T03:54:22;-1.10;99.90
15900;DHT22;8048;50.644;6.184;2024-01-16T03:56:47;-1.10;99.90
15900;DHT22;8048;50.644;6.184;2024-01-16T03:59:13;-1.10;99.90
15900;DHT22;8048;50.644;6.184;2024-01-16T04:01:39;-1.10;99.90
15900;DHT22;8048;50.644;6.184;2024-01-16T04:04:04;-1.10;99.90
15900;DHT22;8048;50.644;6.184;2024-01-16T04:06:32;-1.10;99.90
15900;DHT22;8048;50.644;6.184;2024-01-16T04:08:58;-1.10;99.90
15900;DHT22;8048;50.644;6.184;2024-01-16T04:11:24;-1.10;99.90
15900;DHT22;8048;50.644;6.184;2024-01-16T04:13:49;-1.10;99.90
15900;DHT22;8048;50.644;6.184;2024-01-16T04:16:15;-1.10;99.90
15900;DHT22;8048;50.644;6.184;2024-01-16T04:18:42;-1.20;99.90
15900;DHT22;8048;50.644;6.184;2024-01-16T04:21:08;-1.20;99.90
15900;DHT22;8048;50.644;6.184;2024-01-16T04:23:33;-1.20;99.90
15900;DHT22;8048;50.644;6.184;2024-01-16T04:25:59;-1.20;99.90
15900;DHT22;8048;50.644;6.184;2024-01-16T04:28:25;-1.20;99.90
15900;DHT22;8048;50.644;6.184;2024-01-16T04:30:51;-1.20;99.90
15900;DHT22;8048;50.644;6.184;2024-01-16T04:33:16;-1.20;99.90
15900;DHT22;8048;50.644;6.184;2024-01-16T04:35:42;-1.20;99.90
15900;DHT22;8048;50.644;6.184;2024-01-16T04:38:07;-1.20;99.90
15900;DHT22;8048;50.644;6.184;2024-01-16T04:40:33;-1.20;99.90
15900;DHT22;8048;50.644;6.184;2024-01-16T04:42:59;-1.20;99.90
15900;DHT22;8048;50.644;6.184;2024-01-16T04:45:25;-1.20;99.90
15900;DHT22;8048;50.644;6.184;2024-01-16T04:47:50;-1.20;99.90
15900;DHT22;8048;50.644;6.184;2024-01-16T04:50:16;-1.30;99.90
15900;DHT22;8048;50.644;6.184;2024-01-16T04:52:42;-1.30;99.90
15900;DHT22;8048;50.644;6.184;2024-01-16T04:55:08;-1.30;99.90
15900;DHT22;8048;50.644;6.184;2024-01-16T04:57:34;-1.30;99.90
15900;DHT22;8048;50.644;6.184;2024-01-16T05:00:00;-1.30;99.90
15900;DHT22;8048;50.644;6.184;2024-01-16T05:02:26;-1.30;99.90
15900;DHT22;8048;50.644;6.184;2024-01-16T05:04:51;-1.30;99.90
15900;DHT22;8048;50.644;6.184;2024-01-16T05:07:22;-1.30;99.90
15900;DHT22;8048;50.644;6.184;2024-01-16T05:09:48;-1.30;99.90
15900;DHT22;8048;50.644;6.184;2024-01-16T05:12:14;-1.30;99.90
15900;DHT22;8048;50.644;6.184;2024-01-16T05:14:40;-1.30;99.90
15900;DHT22;8048;50.644;6.184;2024-01-16T05:17:05;-1.40;99.90
15900;DHT22;8048;50.644;6.184;2024-01-16T05:19:31;-1.40;99.90
15900;DHT22;8048;50.644;6.184;2024-01-16T05:21:57;-1.40;99.90
15900;DHT22;8048;50.644;6.184;2024-01-16T05:24:22;-1.40;99.90
15900;DHT22;8048;50.644;6.184;2024-01-16T05:26:48;-1.50;99.90
15900;DHT22;8048;50.644;6.184;2024-01-16T05:29:14;-1.50;99.90
15900;DHT22;8048;50.644;6.184;2024-01-16T05:31:43;-1.60;99.90
15900;DHT22;8048;50.644;6.184;2024-01-16T05:34:10;-1.60;99.90
15900;DHT22;8048;50.644;6.184;2024-01-16T05:36:35;-1.70;99.90
15900;DHT22;8048;50.644;6.184;2024-01-16T05:39:01;-1.70;99.90
15900;DHT22;8048;50.644;6.184;2024-01-16T05:41:27;-1.80;99.90
15900;DHT22;8048;50.644;6.184;2024-01-16T05:43:53;-1.80;99.90
15900;DHT22;8048;50.644;6.184;2024-01-16T05:46:18;-1.80;99.90
15900;DHT22;8048;50.644;6.184;2024-01-16T05:48:44;-1.90;99.90
15900;DHT22;8048;50.644;6.184;2024-01-16T05:51:09;-1.90;99.90
15900;DHT22;8048;50.644;6.184;2024-01-16T05:53:35;-1.90;99.90
15900;DHT22;8048;50.644;6.184;2024-01-16T05:56:01;-2.00;99.90
15900;DHT22;8048;50.644;6.184;2024-01-16T05:58:26;-2.00;99.90
15900;DHT22;8048;50.644;6.184;2024-01-16T06:00:52;-2.10;99.90
15900;DHT22;8048;50.644;6.184;2024-01-16T06:03:17;-2.10;99.90
15900;DHT22;8048;50.644;6.184;2024-01-16T06:05:43;-2.20;99.90
15900;DHT22;8048;50.644;6.184;2024-01-16T06:08:09;-2.30;99.90
15900;DHT22;8048;50.644;6.184;2024-01-16T06:10:34;-2.20;99.90
15900;DHT22;8048;50.644;6.184;2024-01-16T06:13:00;-2.30;99.90
15900;DHT22;8048;50.644;6.184;2024-01-16T06:15:25;-2.40;99.90
15900;DHT22;8048;50.644;6.184;2024-01-16T06:17:51;-2.40;99.90
15900;DHT22;8048;50.644;6.184;2024-01-16T06:20:16;-2.50;99.90
15900;DHT22;8048;50.644;6.184;2024-01-16T06:22:42;-2.40;99.90
15900;DHT22;8048;50.644;6.184;2024-01-16T06:25:07;-2.60;99.90
15900;DHT22;8048;50.644;6.184;2024-01-16T06:27:33;-2.60;99.90
15900;DHT22;8048;50.644;6.184;2024-01-16T06:29:59;-2.70;99.90
15900;DHT22;8048;50.644;6.184;2024-01-16T06:32:24;-2.70;99.90
15900;DHT22;8048;50.644;6.184;2024-01-16T06:34:50;-2.70;99.90
15900;DHT22;8048;50.644;6.184;2024-01-16T06:37:15;-2.80;99.90
15900;DHT22;8048;50.644;6.184;2024-01-16T06:39:41;-2.80;99.90
15900;DHT22;8048;50.644;6.184;2024-01-16T06:42:06;-2.90;99.90
15900;DHT22;8048;50.644;6.184;2024-01-16T06:44:32;-2.90;99.90
15900;DHT22;8048;50.644;6.184;2024-01-16T06:46:57;-3.00;99.90
15900;DHT22;8048;50.644;6.184;2024-01-16T06:49:23;-2.90;99.90
15900;DHT22;8048;50.644;6.184;2024-01-16T06:51:48;-3.00;99.90
15900;DHT22;8048;50.644;6.184;2024-01-16T06:54:14;-3.00;99.90
15900;DHT22;8048;50.644;6.184;2024-01-16T06:56:40;-3.00;99.90
15900;DHT22;8048;50.644;6.184;2024-01-16T06:59:05;-2.90;99.90
15900;DHT22;8048;50.644;6.184;2024-01-16T07:01:31;-2.90;99.90
15900;DHT22;8048;50.644;6.184;2024-01-16T07:03:56;-3.00;99.90
15900;DHT22;8048;50.644;6.184;2024-01-16T07:06:22;-3.00;99.90
15900;DHT22;8048;50.644;6.184;2024-01-16T07:08:47;-3.00;99.90
15900;DHT22;8048;50.644;6.184;2024-01-16T07:11:13;-3.00;99.90
15900;DHT22;8048;50.644;6.184;2024-01-16T07:13:43;-3.10;99.90
15900;DHT22;8048;50.644;6.184;2024-01-16T07:16:12;-3.10;99.90
15900;DHT22;8048;50.644;6.184;2024-01-16T07:18:38;-3.10;99.90
15900;DHT22;8048;50.644;6.184;2024-01-16T07:21:04;-3.00;99.90
15900;DHT22;8048;50.644;6.184;2024-01-16T07:23:30;-3.00;99.90
15900;DHT22;8048;50.644;6.184;2024-01-16T07:25:56;-3.10;99.90
15900;DHT22;8048;50.644;6.184;2024-01-16T07:28:21;-3.00;99.90
15900;DHT22;8048;50.644;6.184;2024-01-16T07:30:47;-3.10;99.90
15900;DHT22;8048;50.644;6.184;2024-01-16T07:33:13;-3.10;99.90
15900;DHT22;8048;50.644;6.184;2024-01-16T07:35:38;-3.10;99.90
15900;DHT22;8048;50.644;6.184;2024-01-16T07:38:06;-3.20;99.90
15900;DHT22;8048;50.644;6.184;2024-01-16T07:40:32;-3.20;99.90
15900;DHT22;8048;50.644;6.184;2024-01-16T07:42:57;-3.20;99.90
15900;DHT22;8048;50.644;6.184;2024-01-16T07:45:23;-3.20;99.90
15900;DHT22;8048;50.644;6.184;2024-01-16T07:47:49;-3.30;99.90
15900;DHT22;8048;50.644;6.184;2024-01-16T07:50:15;-3.30;99.90
15900;DHT22;8048;50.644;6.184;2024-01-16T07:52:40;-3.30;99.90
15900;DHT22;8048;50.644;6.184;2024-01-16T07:55:06;-3.30;99.90
15900;DHT22;8048;50.644;6.184;2024-01-16T07:57:31;-3.30;99.90
15900;DHT22;8048;50.644;6.184;2024-01-16T07:59:57;-3.30;99.90
15900;DHT22;8048;50.644;6.184;2024-01-16T08:02:26;-3.30;99.90
15900;DHT22;8048;50.644;6.184;2024-01-16T08:04:52;-3.30;99.90
15900;DHT22;8048;50.644;6.184;2024-01-16T08:07:17;-3.30;99.90
15900;DHT22;8048;50.644;6.184;2024-01-16T08:09:43;-3.30;99.90
15900;DHT22;8048;50.644;6.184;2024-01-16T08:12:08;-3.40;99.90
15900;DHT22;8048;50.644;6.184;2024-01-16T08:14:34;-3.30;99.90
15900;DHT22;8048;50.644;6.184;2024-01-16T08:17:00;-3.30;99.90
15900;DHT22;8048;50.644;6.184;2024-01-16T08:19:25;-3.30;99.90
15900;DHT22;8048;50.644;6.184;2024-01-16T08:21:51;-3.20;99.90
15900;DHT22;8048;50.644;6.184;2024-01-16T08:24:17;-3.20;99.90
15900;DHT22;8048;50.644;6.184;2024-01-16T08:26:43;-3.20;99.90
15900;DHT22;8048;50.644;6.184;2024-01-16T08:29:08;-3.10;99.90
15900;DHT22;8048;50.644;6.184;2024-01-16T08:31:34;-3.00;99.90
15900;DHT22;8048;50.644;6.184;2024-01-16T08:33:59;-2.90;99.90
15900;DHT22;8048;50.644;6.184;2024-01-16T08:36:25;-2.80;99.90
15900;DHT22;8048;50.644;6.184;2024-01-16T08:38:50;-2.80;99.90
15900;DHT22;8048;50.644;6.184;2024-01-16T08:41:16;-2.70;99.90
15900;DHT22;8048;50.644;6.184;2024-01-16T08:43:41;-2.70;99.90
15900;DHT22;8048;50.644;6.184;2024-01-16T08:46:07;-2.70;99.90
15900;DHT22;8048;50.644;6.184;2024-01-16T08:48:32;-2.60;99.90
15900;DHT22;8048;50.644;6.184;2024-01-16T08:50:58;-2.60;99.90
15900;DHT22;8048;50.644;6.184;2024-01-16T08:53:24;-2.40;99.90
15900;DHT22;8048;50.644;6.184;2024-01-16T08:55:49;-2.20;99.90
15900;DHT22;8048;50.644;6.184;2024-01-16T08:58:15;-1.90;99.90
15900;DHT22;8048;50.644;6.184;2024-01-16T09:00:40;-1.70;99.90
15900;DHT22;8048;50.644;6.184;2024-01-16T09:03:06;-1.40;99.90
15900;DHT22;8048;50.644;6.184;2024-01-16T09:05:33;-1.30;99.90
15900;DHT22;8048;50.644;6.184;2024-01-16T09:08:01;-1.30;99.90
15900;DHT22;8048;50.644;6.184;2024-01-16T09:10:27;-1.30;99.90
15900;DHT22;8048;50.644;6.184;2024-01-16T09:12:54;-1.30;99.90
15900;DHT22;8048;50.644;6.184;2024-01-16T09:15:19;-1.20;99.90
15900;DHT22;8048;50.644;6.184;2024-01-16T09:17:45;-1.20;99.90
15900;DHT22;8048;50.644;6.184;2024-01-16T09:20:11;-1.20;99.90
15900;DHT22;8048;50.644;6.184;2024-01-16T09:22:37;-1.20;99.90
15900;DHT22;8048;50.644;6.184;2024-01-16T09:25:03;-1.10;99.90
15900;DHT22;8048;50.644;6.184;2024-01-16T09:27:28;-1.10;99.90
15900;DHT22;8048;50.644;6.184;2024-01-16T09:29:54;-1.00;99.90
15900;DHT22;8048;50.644;6.184;2024-01-16T09:32:19;-0.90;99.90
15900;DHT22;8048;50.644;6.184;2024-01-16T09:34:45;-0.90;99.90
15900;DHT22;8048;50.644;6.184;2024-01-16T09:37:10;-0.90;99.90
15900;DHT22;8048;50.644;6.184;2024-01-16T09:39:40;-0.80;99.90
15900;DHT22;8048;50.644;6.184;2024-01-16T09:42:06;-0.70;99.90
15900;DHT22;8048;50.644;6.184;2024-01-16T09:44:32;-0.70;99.90
15900;DHT22;8048;50.644;6.184;2024-01-16T09:46:59;-0.50;99.90
15900;DHT22;8048;50.644;6.184;2024-01-16T09:49:27;-0.40;99.90
15900;DHT22;8048;50.644;6.184;2024-01-16T09:51:54;-0.40;99.90
15900;DHT22;8048;50.644;6.184;2024-01-16T09:54:20;-0.40;99.60
15900;DHT22;8048;50.644;6.184;2024-01-16T09:56:48;-0.30;99.50
15900;DHT22;8048;50.644;6.184;2024-01-16T09:59:17;-0.40;99.30
15900;DHT22;8048;50.644;6.184;2024-01-16T10:01:45;-0.40;99.00
15900;DHT22;8048;50.644;6.184;2024-01-16T10:04:10;-0.40;99.30
15900;DHT22;8048;50.644;6.184;2024-01-16T10:06:38;-0.40;99.30
15900;DHT22;8048;50.644;6.184;2024-01-16T10:09:03;-0.40;99.30
15900;DHT22;8048;50.644;6.184;2024-01-16T10:11:30;-0.30;99.50
15900;DHT22;8048;50.644;6.184;2024-01-16T10:13:58;-0.30;99.30
15900;DHT22;8048;50.644;6.184;2024-01-16T10:19:34;0.30;99.10
15900;DHT22;8048;50.644;6.184;2024-01-16T10:22:04;0.90;99.00
15900;DHT22;8048;50.644;6.184;2024-01-16T10:24:30;1.40;97.50
15900;DHT22;8048;50.644;6.184;2024-01-16T10:26:59;1.70;96.10
15900;DHT22;8048;50.644;6.184;2024-01-16T10:29:32;2.00;95.60
15900;DHT22;8048;50.644;6.184;2024-01-16T10:31:58;2.30;95.60
15900;DHT22;8048;50.644;6.184;2024-01-16T10:34:24;2.60;94.60
15900;DHT22;8048;50.644;6.184;2024-01-16T10:36:52;2.50;93.90
15900;DHT22;8048;50.644;6.184;2024-01-16T10:39:23;2.80;94.00
15900;DHT22;8048;50.644;6.184;2024-01-16T10:41:58;3.50;93.70
15900;DHT22;8048;50.644;6.184;2024-01-16T10:44:24;3.80;91.60
15900;DHT22;8048;50.644;6.184;2024-01-16T10:46:50;3.70;91.50
15900;DHT22;8048;50.644;6.184;2024-01-16T10:49:15;3.90;91.80
15900;DHT22;8048;50.644;6.184;2024-01-16T10:51:43;3.80;91.20
15900;DHT22;8048;50.644;6.184;2024-01-16T10:54:13;4.00;90.90
15900;DHT22;8048;50.644;6.184;2024-01-16T10:56:44;4.20;90.50
15900;DHT22;8048;50.644;6.184;2024-01-16T10:59:24;4.00;89.30
15900;DHT22;8048;50.644;6.184;2024-01-16T11:01:54;4.00;89.80
15900;DHT22;8048;50.644;6.184;2024-01-16T11:04:21;3.70;89.60
15900;DHT22;8048;50.644;6.184;2024-01-16T11:06:50;3.30;90.00
15900;DHT22;8048;50.644;6.184;2024-01-16T11:09:16;3.20;91.00
15900;DHT22;8048;50.644;6.184;2024-01-16T11:11:44;3.30;91.80
15900;DHT22;8048;50.644;6.184;2024-01-16T11:14:12;3.20;91.10
15900;DHT22;8048;50.644;6.184;2024-01-16T11:16:39;3.00;90.90
15900;DHT22;8048;50.644;6.184;2024-01-16T11:19:08;3.00;91.40
15900;DHT22;8048;50.644;6.184;2024-01-16T11:21:35;3.10;91.10
15900;DHT22;8048;50.644;6.184;2024-01-16T11:24:00;2.90;90.80
15900;DHT22;8048;50.644;6.184;2024-01-16T11:26:28;2.60;90.20
15900;DHT22;8048;50.644;6.184;2024-01-16T11:28:54;2.80;91.40
15900;DHT22;8048;50.644;6.184;2024-01-16T11:31:32;2.90;90.60
15900;DHT22;8048;50.644;6.184;2024-01-16T11:33:59;3.10;90.90
15900;DHT22;8048;50.644;6.184;2024-01-16T11:39:17;3.40;90.00
15900;DHT22;8048;50.644;6.184;2024-01-16T11:41:57;3.50;89.40
15900;DHT22;8048;50.644;6.184;2024-01-16T11:47:09;3.70;86.20
15900;DHT22;8048;50.644;6.184;2024-01-16T11:49:40;4.30;89.20
15900;DHT22;8048;50.644;6.184;2024-01-16T11:52:05;5.30;86.60
15900;DHT22;8048;50.644;6.184;2024-01-16T11:54:32;6.00;85.00
15900;DHT22;8048;50.644;6.184;2024-01-16T11:57:36;6.50;80.80
15900;DHT22;8048;50.644;6.184;2024-01-16T12:00:07;6.90;80.70
15900;DHT22;8048;50.644;6.184;2024-01-16T12:05:11;8.00;77.50
15900;DHT22;8048;50.644;6.184;2024-01-16T12:07:50;7.90;74.20
15900;DHT22;8048;50.644;6.184;2024-01-16T12:10:20;7.80;76.20
15900;DHT22;8048;50.644;6.184;2024-01-16T12:12:47;7.80;74.40
15900;DHT22;8048;50.644;6.184;2024-01-16T12:15:14;7.80;72.80
15900;DHT22;8048;50.644;6.184;2024-01-16T12:17:54;7.90;70.50
15900;DHT22;8048;50.644;6.184;2024-01-16T12:20:22;8.10;73.20
15900;DHT22;8048;50.644;6.184;2024-01-16T12:23:02;8.50;71.60
15900;DHT22;8048;50.644;6.184;2024-01-16T12:25:29;8.50;69.70
15900;DHT22;8048;50.644;6.184;2024-01-16T12:30:23;7.80;75.30
15900;DHT22;8048;50.644;6.184;2024-01-16T12:32:49;7.50;70.60
15900;DHT22;8048;50.644;6.184;2024-01-16T12:35:20;7.70;70.60
15900;DHT22;8048;50.644;6.184;2024-01-16T12:37:58;7.60;73.10
15900;DHT22;8048;50.644;6.184;2024-01-16T12:40:24;7.80;73.30
15900;DHT22;8048;50.644;6.184;2024-01-16T12:42:50;7.50;67.90
15900;DHT22;8048;50.644;6.184;2024-01-16T12:45:17;6.80;68.30
15900;DHT22;8048;50.644;6.184;2024-01-16T12:47:43;6.40;70.10
15900;DHT22;8048;50.644;6.184;2024-01-16T12:50:10;5.90;72.00
15900;DHT22;8048;50.644;6.184;2024-01-16T12:52:35;5.70;74.10
15900;DHT22;8048;50.644;6.184;2024-01-16T12:55:01;5.70;73.10
15900;DHT22;8048;50.644;6.184;2024-01-16T12:57:29;5.60;74.60
15900;DHT22;8048;50.644;6.184;2024-01-16T12:59:55;5.90;75.50
15900;DHT22;8048;50.644;6.184;2024-01-16T13:02:23;5.70;74.00
15900;DHT22;8048;50.644;6.184;2024-01-16T13:05:00;5.30;76.40
15900;DHT22;8048;50.644;6.184;2024-01-16T13:07:28;5.10;75.20
15900;DHT22;8048;50.644;6.184;2024-01-16T13:10:11;5.60;78.70
15900;DHT22;8048;50.644;6.184;2024-01-16T13:12:37;6.20;77.10
15900;DHT22;8048;50.644;6.184;2024-01-16T13:15:04;6.00;71.80
15900;DHT22;8048;50.644;6.184;2024-01-16T13:17:33;5.90;73.60
15900;DHT22;8048;50.644;6.184;2024-01-16T13:19:59;5.50;72.40
15900;DHT22;8048;50.644;6.184;2024-01-16T13:22:25;5.50;75.80
15900;DHT22;8048;50.644;6.184;2024-01-16T13:24:50;5.20;74.30
15900;DHT22;8048;50.644;6.184;2024-01-16T13:27:16;5.20;73.90
15900;DHT22;8048;50.644;6.184;2024-01-16T13:29:42;5.20;76.50
15900;DHT22;8048;50.644;6.184;2024-01-16T13:32:07;5.50;75.60
15900;DHT22;8048;50.644;6.184;2024-01-16T13:34:33;6.00;74.80
15900;DHT22;8048;50.644;6.184;2024-01-16T13:37:01;5.90;70.60
15900;DHT22;8048;50.644;6.184;2024-01-16T13:39:27;5.50;71.00
15900;DHT22;8048;50.644;6.184;2024-01-16T13:41:53;5.90;73.10
15900;DHT22;8048;50.644;6.184;2024-01-16T13:44:18;5.90;70.80
15900;DHT22;8048;50.644;6.184;2024-01-16T13:46:44;5.50;72.60
15900;DHT22;8048;50.644;6.184;2024-01-16T13:49:10;5.00;74.10
15900;DHT22;8048;50.644;6.184;2024-01-16T13:51:35;5.10;72.80
15900;DHT22;8048;50.644;6.184;2024-01-16T13:54:01;4.80;75.70
15900;DHT22;8048;50.644;6.184;2024-01-16T13:56:27;5.00;76.80
15900;DHT22;8048;50.644;6.184;2024-01-16T13:58:52;4.70;76.40
15900;DHT22;8048;50.644;6.184;2024-01-16T14:01:18;4.80;74.40
15900;DHT22;8048;50.644;6.184;2024-01-16T14:03:45;4.60;74.60
15900;DHT22;8048;50.644;6.184;2024-01-16T14:06:12;4.70;76.80
15900;DHT22;8048;50.644;6.184;2024-01-16T14:08:38;4.60;76.00
15900;DHT22;8048;50.644;6.184;2024-01-16T14:11:04;4.80;76.30
15900;DHT22;8048;50.644;6.184;2024-01-16T14:13:29;4.80;75.00
15900;DHT22;8048;50.644;6.184;2024-01-16T14:15:55;5.00;75.30
15900;DHT22;8048;50.644;6.184;2024-01-16T14:18:22;5.00;74.60
15900;DHT22;8048;50.644;6.184;2024-01-16T14:20:48;4.80;75.00
15900;DHT22;8048;50.644;6.184;2024-01-16T14:23:13;4.80;75.50
15900;DHT22;8048;50.644;6.184;2024-01-16T14:25:39;4.90;76.50
15900;DHT22;8048;50.644;6.184;2024-01-16T14:28:05;4.60;75.40
15900;DHT22;8048;50.644;6.184;2024-01-16T14:30:34;4.30;76.70
15900;DHT22;8048;50.644;6.184;2024-01-16T14:33:00;4.20;77.80
15900;DHT22;8048;50.644;6.184;2024-01-16T14:35:32;4.10;79.30
15900;DHT22;8048;50.644;6.184;2024-01-16T14:37:58;4.10;79.80
15900;DHT22;8048;50.644;6.184;2024-01-16T14:40:24;3.90;78.90
15900;DHT22;8048;50.644;6.184;2024-01-16T14:42:53;3.60;80.00
15900;DHT22;8048;50.644;6.184;2024-01-16T14:45:23;3.30;79.40
15900;DHT22;8048;50.644;6.184;2024-01-16T14:47:49;3.10;80.70
15900;DHT22;8048;50.644;6.184;2024-01-16T14:50:16;2.70;82.10
15900;DHT22;8048;50.644;6.184;2024-01-16T14:52:44;2.70;83.20
15900;DHT22;8048;50.644;6.184;2024-01-16T14:55:10;2.60;83.00
15900;DHT22;8048;50.644;6.184;2024-01-16T14:57:38;2.50;83.80
15900;DHT22;8048;50.644;6.184;2024-01-16T15:00:17;2.30;83.20
15900;DHT22;8048;50.644;6.184;2024-01-16T15:02:48;2.20;84.90
15900;DHT22;8048;50.644;6.184;2024-01-16T15:05:15;2.20;85.30
15900;DHT22;8048;50.644;6.184;2024-01-16T15:07:41;2.00;84.80
15900;DHT22;8048;50.644;6.184;2024-01-16T15:10:09;1.90;85.80
15900;DHT22;8048;50.644;6.184;2024-01-16T15:12:35;1.70;86.30
15900;DHT22;8048;50.644;6.184;2024-01-16T15:15:01;1.70;86.40
15900;DHT22;8048;50.644;6.184;2024-01-16T15:17:29;1.50;87.20
15900;DHT22;8048;50.644;6.184;2024-01-16T15:19:54;1.50;87.80
15900;DHT22;8048;50.644;6.184;2024-01-16T15:22:20;1.40;88.50
15900;DHT22;8048;50.644;6.184;2024-01-16T15:24:46;1.30;88.60
15900;DHT22;8048;50.644;6.184;2024-01-16T15:27:13;1.30;89.40
15900;DHT22;8048;50.644;6.184;2024-01-16T15:29:38;1.10;89.40
15900;DHT22;8048;50.644;6.184;2024-01-16T15:32:04;1.00;90.10
15900;DHT22;8048;50.644;6.184;2024-01-16T15:34:29;0.90;90.30
15900;DHT22;8048;50.644;6.184;2024-01-16T15:36:55;0.80;90.30
15900;DHT22;8048;50.644;6.184;2024-01-16T15:39:20;0.70;90.40
15900;DHT22;8048;50.644;6.184;2024-01-16T15:41:47;0.50;90.70
15900;DHT22;8048;50.644;6.184;2024-01-16T15:44:12;0.40;90.80
15900;DHT22;8048;50.644;6.184;2024-01-16T15:46:57;0.30;91.20
15900;DHT22;8048;50.644;6.184;2024-01-16T15:49:24;0.20;91.30
15900;DHT22;8048;50.644;6.184;2024-01-16T15:51:50;0.20;91.60
15900;DHT22;8048;50.644;6.184;2024-01-16T15:54:16;0.10;92.00
15900;DHT22;8048;50.644;6.184;2024-01-16T15:56:42;0.00;92.30
15900;DHT22;8048;50.644;6.184;2024-01-16T15:59:08;-0.10;92.20
15900;DHT22;8048;50.644;6.184;2024-01-16T16:01:37;-0.20;92.10